Time;durP1;ratioP1;P1;durP2;ratioP2;P2;SDS_P1;SDS_P2;PMS_P1;PMS_P2;Temp;Humidity;BMP_temperature;BMP_pressure;BME280_temperature;BME280_humidity;BME280_pressure;Samples;Min_cycle;Max_cycle;Signal;HPM_P1;HPM_P2
2023/12/01 00:01:30;;;;;;;149.47;43.33;;;0.40;99.90;;;;;;4977659;28;39465;-79
2023/12/01 00:04:31;;;;;;;118.13;41.87;;;0.40;99.90;;;;;;4977896;28;38294;-80
2023/12/01 00:06:59;;;;;;;139.43;42.40;;;0.30;99.90;;;;;;4957809;28;47464;-82
2023/12/01 00:09:37;;;;;;;257.37;52.63;;;0.30;99.90;;;;;;4959924;28;38865;-81
2023/12/01 00:12:03;;;;;;;121.80;43.63;;;0.30;99.90;;;;;;4957898;28;38762;-80
2023/12/01 00:14:52;;;;;;;131.80;41.47;;;0.30;99.90;;;;;;4955576;28;35975;-82
2023/12/01 00:17:38;;;;;;;101.13;42.13;;;0.20;99.90;;;;;;4972378;28;39366;-80
2023/12/01 00:20:11;;;;;;;106.90;42.57;;;0.30;99.90;;;;;;4954283;28;37782;-79
2023/12/01 00:22:37;;;;;;;95.03;41.73;;;0.40;99.90;;;;;;4971664;28;38209;-81
2023/12/01 00:25:07;;;;;;;159.90;47.13;;;0.40;99.90;;;;;;4964643;28;37865;-82
2023/12/01 00:27:34;;;;;;;105.60;43.63;;;0.30;99.90;;;;;;4954879;28;47233;-80
2023/12/01 00:30:00;;;;;;;116.27;44.23;;;0.30;99.90;;;;;;4961007;28;37878;-80
2023/12/01 00:32:27;;;;;;;119.53;46.67;;;0.30;99.90;;;;;;4949975;28;38244;-80
2023/12/01 00:34:56;;;;;;;109.43;45.33;;;0.40;99.90;;;;;;4959513;28;37381;-81
2023/12/01 00:37:50;;;;;;;108.83;46.03;;;0.40;99.90;;;;;;4956796;28;39000;-78
2023/12/01 00:40:25;;;;;;;98.60;45.87;;;0.40;99.90;;;;;;4954728;28;38452;-80
2023/12/01 00:42:51;;;;;;;99.80;43.67;;;0.40;99.90;;;;;;4978247;28;37557;-81
2023/12/01 00:45:22;;;;;;;119.70;45.40;;;0.40;99.90;;;;;;4938212;28;37333;-80
2023/12/01 00:51:26;;;;;;;101.07;42.97;;;0.30;99.90;;;;;;4971930;28;50528;-80
2023/12/01 00:54:01;;;;;;;97.30;42.27;;;0.30;99.90;;;;;;4984726;28;38014;-80
2023/12/01 00:56:28;;;;;;;126.30;45.77;;;0.30;99.90;;;;;;4959737;28;48638;-79
2023/12/01 00:58:54;;;;;;;102.87;45.43;;;0.30;99.90;;;;;;4982599;28;38993;-79
2023/12/01 01:01:41;;;;;;;118.40;46.70;;;0.40;99.90;;;;;;4980735;28;39747;-80
2023/12/01 01:04:07;;;;;;;104.43;46.13;;;0.50;99.90;;;;;;4970531;28;40046;-78
2023/12/01 01:06:49;;;;;;;121.67;49.33;;;0.50;99.90;;;;;;4966262;28;39218;-81
2023/12/01 01:09:18;;;;;;;119.20;50.77;;;0.60;99.90;;;;;;4959598;28;39230;-79
2023/12/01 01:11:53;;;;;;;113.13;47.87;;;0.50;99.90;;;;;;4951607;28;39517;-80
2023/12/01 01:14:27;;;;;;;145.80;52.00;;;0.50;99.90;;;;;;4948562;28;38867;-80
2023/12/01 01:16:57;;;;;;;141.00;50.27;;;0.60;99.90;;;;;;4959155;28;39147;-80
2023/12/01 01:19:29;;;;;;;122.87;50.27;;;0.70;99.90;;;;;;4944485;28;38481;-80
2023/12/01 01:21:56;;;;;;;149.18;50.47;;;0.60;99.90;;;;;;4981695;28;39539;-79
2023/12/01 01:24:23;;;;;;;116.47;48.77;;;0.70;99.90;;;;;;4968292;28;37245;-80
2023/12/01 01:26:50;;;;;;;115.73;50.03;;;0.70;99.90;;;;;;4976234;28;38294;-80
2023/12/01 01:29:17;;;;;;;128.70;49.47;;;0.80;99.90;;;;;;4964870;28;39232;-81
2023/12/01 01:31:58;;;;;;;158.13;54.03;;;0.80;99.90;;;;;;4973571;28;40017;-82
2023/12/01 01:34:38;;;;;;;131.13;48.87;;;0.80;99.90;;;;;;4951700;28;39841;-79
2023/12/01 01:37:55;;;;;;;135.93;50.80;;;0.80;99.90;;;;;;4977767;28;38581;-80
2023/12/01 01:40:24;;;;;;;108.80;45.97;;;0.90;99.90;;;;;;4972308;28;40210;-80
2023/12/01 01:46:00;;;;;;;113.27;46.90;;;0.80;99.90;;;;;;5000047;23;20066;-79
2023/12/01 01:48:34;;;;;;;96.60;42.93;;;0.70;99.90;;;;;;4955741;28;36217;-79
2023/12/01 01:51:02;;;;;;;102.33;44.20;;;0.70;99.90;;;;;;4952305;28;39223;-80
2023/12/01 01:53:29;;;;;;;91.40;42.80;;;0.70;99.90;;;;;;4952605;28;48493;-79
2023/12/01 01:55:58;;;;;;;101.50;44.80;;;0.70;99.90;;;;;;4957196;28;38950;-79
2023/12/01 01:58:34;;;;;;;114.40;45.87;;;0.80;99.90;;;;;;4951281;28;37929;-79
2023/12/01 02:03:37;;;;;;;102.60;46.57;;;0.80;99.90;;;;;;5025036;23;20051;-75
2023/12/01 02:06:07;;;;;;;101.87;45.83;;;0.80;99.90;;;;;;4949708;28;37220;-75
2023/12/01 02:08:34;;;;;;;107.83;48.23;;;0.70;99.90;;;;;;4949929;28;36313;-75
2023/12/01 02:11:00;;;;;;;107.97;47.47;;;0.70;99.90;;;;;;4944493;28;38994;-75
2023/12/01 02:13:28;;;;;;;129.33;49.80;;;0.70;99.90;;;;;;4949453;28;40604;-76
2023/12/01 02:15:55;;;;;;;96.47;45.67;;;0.70;99.90;;;;;;4957093;28;38522;-75
2023/12/01 02:18:22;;;;;;;104.70;45.37;;;0.70;99.90;;;;;;4965151;28;37327;-75
2023/12/01 02:20:50;;;;;;;123.87;46.80;;;0.70;99.90;;;;;;4967041;28;39998;-75
2023/12/01 02:23:16;;;;;;;98.37;45.07;;;0.80;99.90;;;;;;4944340;28;37045;-76
2023/12/01 02:25:43;;;;;;;134.00;47.87;;;0.70;99.90;;;;;;4955298;28;36864;-76
2023/12/01 02:28:09;;;;;;;101.77;43.83;;;0.70;99.90;;;;;;4968332;28;36856;-75
2023/12/01 02:30:35;;;;;;;108.90;44.13;;;0.70;99.90;;;;;;4959679;28;40173;-75
2023/12/01 02:33:12;;;;;;;128.13;48.07;;;0.70;99.90;;;;;;4947493;28;37536;-76
2023/12/01 02:35:38;;;;;;;98.07;43.33;;;0.70;99.90;;;;;;4961062;28;48796;-75
2023/12/01 02:38:04;;;;;;;113.10;43.90;;;0.60;99.90;;;;;;4942868;28;36069;-75
2023/12/01 02:40:30;;;;;;;117.20;45.33;;;0.50;99.90;;;;;;4964554;28;38671;-75
2023/12/01 02:42:56;;;;;;;98.10;43.70;;;0.60;99.90;;;;;;4949795;28;38015;-75
2023/12/01 02:45:23;;;;;;;125.40;45.03;;;0.40;99.90;;;;;;4967689;28;38122;-76
2023/12/01 02:47:49;;;;;;;118.23;44.97;;;0.40;99.90;;;;;;4946161;28;36923;-75
2023/12/01 02:50:18;;;;;;;114.20;42.03;;;0.40;99.90;;;;;;4947428;28;37904;-75
2023/12/01 02:52:44;;;;;;;97.67;41.07;;;0.40;99.90;;;;;;4958865;28;38745;-75
2023/12/01 02:55:11;;;;;;;107.07;40.77;;;0.30;99.90;;;;;;4950026;28;38166;-75
2023/12/01 02:57:39;;;;;;;92.17;38.80;;;0.30;99.90;;;;;;4939042;28;36447;-75
2023/12/01 03:00:13;;;;;;;103.20;38.77;;;0.30;99.90;;;;;;4971628;28;38640;-75
2023/12/01 03:02:41;;;;;;;88.80;36.30;;;0.20;99.90;;;;;;4955232;28;38977;-75
2023/12/01 03:05:09;;;;;;;78.57;32.17;;;0.20;99.90;;;;;;4964313;28;38234;-75
2023/12/01 03:07:41;;;;;;;71.57;31.37;;;0.10;99.90;;;;;;4950691;28;36265;-75
2023/12/01 03:10:08;;;;;;;89.32;32.38;;;0.00;99.90;;;;;;4964681;28;38985;-75
2023/12/01 03:12:34;;;;;;;75.90;31.47;;;-0.10;99.90;;;;;;4956146;28;37720;-75
2023/12/01 03:15:01;;;;;;;66.97;28.23;;;-0.10;99.90;;;;;;4947253;28;37430;-75
2023/12/01 03:17:27;;;;;;;68.90;29.67;;;0.00;99.90;;;;;;4948525;28;38282;-77
2023/12/01 03:19:53;;;;;;;74.73;30.60;;;0.10;99.90;;;;;;4953931;28;38663;-75
2023/12/01 03:22:22;;;;;;;74.17;31.90;;;0.00;99.90;;;;;;4956246;28;39347;-76
2023/12/01 03:24:53;;;;;;;82.53;30.63;;;0.00;99.90;;;;;;4957500;28;39038;-75
2023/12/01 03:27:25;;;;;;;78.87;32.47;;;0.10;99.90;;;;;;4954817;28;37224;-75
2023/12/01 03:29:54;;;;;;;82.80;32.38;;;0.20;99.90;;;;;;4950648;28;37615;-76
2023/12/01 03:32:24;;;;;;;81.77;31.17;;;0.10;99.90;;;;;;4943259;28;37323;-76
2023/12/01 03:34:50;;;;;;;68.67;28.93;;;0.10;99.90;;;;;;4961927;28;38383;-75
2023/12/01 03:37:16;;;;;;;71.23;29.30;;;0.00;99.90;;;;;;4940709;28;36627;-75
2023/12/01 03:39:42;;;;;;;55.13;27.10;;;0.00;99.90;;;;;;4954828;28;38676;-75
2023/12/01 03:42:09;;;;;;;61.13;28.37;;;0.10;99.90;;;;;;4950350;28;37784;-76
2023/12/01 03:44:35;;;;;;;62.50;29.30;;;0.00;99.90;;;;;;4940070;28;37035;-75
2023/12/01 03:47:01;;;;;;;65.83;28.27;;;0.10;99.90;;;;;;4974410;28;38708;-75
2023/12/01 03:49:27;;;;;;;63.07;26.53;;;0.10;99.90;;;;;;4927529;28;47631;-75
2023/12/01 03:51:54;;;;;;;57.60;26.63;;;0.10;99.90;;;;;;4947075;28;37253;-75
2023/12/01 03:54:20;;;;;;;56.27;26.50;;;0.10;99.90;;;;;;4973296;28;38304;-76
2023/12/01 03:56:46;;;;;;;61.37;26.87;;;0.10;99.90;;;;;;4964950;28;38991;-76
2023/12/01 03:59:13;;;;;;;53.10;24.70;;;0.00;99.90;;;;;;4954284;28;38216;-76
2023/12/01 04:01:42;;;;;;;59.20;25.90;;;0.10;99.90;;;;;;4942965;28;38221;-76
2023/12/01 04:04:10;;;;;;;58.77;25.83;;;0.10;99.90;;;;;;4951284;28;37884;-76
2023/12/01 04:06:37;;;;;;;58.77;24.50;;;0.10;99.90;;;;;;4947647;28;35403;-76
2023/12/01 04:09:05;;;;;;;60.43;25.03;;;0.10;99.90;;;;;;4951049;28;38020;-76
2023/12/01 04:11:36;;;;;;;52.20;23.83;;;0.00;99.90;;;;;;4967457;28;39457;-76
2023/12/01 04:14:05;;;;;;;56.80;23.83;;;-0.10;99.90;;;;;;4963312;28;37892;-76
2023/12/01 04:16:31;;;;;;;51.80;24.40;;;-0.10;99.90;;;;;;4957277;28;36605;-76
2023/12/01 04:18:58;;;;;;;51.97;24.23;;;-0.10;99.90;;;;;;4953648;28;37541;-76
2023/12/01 04:21:24;;;;;;;48.50;22.70;;;-0.10;99.90;;;;;;4952252;28;37566;-75
2023/12/01 04:23:55;;;;;;;51.37;23.80;;;-0.20;99.90;;;;;;4963838;28;39046;-76
2023/12/01 04:26:21;;;;;;;47.10;22.80;;;-0.20;99.90;;;;;;4962365;28;37550;-77
2023/12/01 04:28:47;;;;;;;51.33;22.63;;;-0.20;99.90;;;;;;4953594;28;38435;-76
2023/12/01 04:31:16;;;;;;;55.20;22.67;;;-0.20;99.90;;;;;;4968769;28;40109;-75
2023/12/01 04:33:42;;;;;;;45.53;21.03;;;-0.20;99.90;;;;;;4962453;28;37060;-75
2023/12/01 04:36:11;;;;;;;45.20;20.63;;;-0.20;99.90;;;;;;4963614;28;36424;-76
2023/12/01 04:38:37;;;;;;;46.93;20.30;;;-0.30;99.90;;;;;;4944838;28;37609;-76
2023/12/01 04:41:03;;;;;;;44.57;19.53;;;-0.40;99.90;;;;;;4964604;28;38561;-76
2023/12/01 04:43:30;;;;;;;44.43;19.63;;;-0.40;99.90;;;;;;4963631;28;39316;-76
2023/12/01 04:45:59;;;;;;;45.20;19.33;;;-0.30;99.90;;;;;;4965131;28;36622;-76
2023/12/01 04:48:28;;;;;;;42.20;19.80;;;-0.30;99.90;;;;;;4971988;28;39573;-75
2023/12/01 04:50:54;;;;;;;49.87;21.67;;;-0.30;99.90;;;;;;4956575;28;37201;-76
2023/12/01 04:53:20;;;;;;;49.27;20.07;;;-0.20;99.90;;;;;;4952871;28;36668;-75
2023/12/01 04:55:47;;;;;;;50.13;19.17;;;-0.30;99.90;;;;;;4948540;28;37180;-76
2023/12/01 04:58:13;;;;;;;54.50;21.87;;;-0.30;99.90;;;;;;4963897;28;38735;-76
2023/12/01 05:00:39;;;;;;;53.30;20.07;;;-0.30;99.90;;;;;;4956804;28;38277;-76
2023/12/01 05:03:07;;;;;;;57.80;23.33;;;-0.40;99.90;;;;;;4953474;28;38060;-76
2023/12/01 05:05:42;;;;;;;61.80;25.20;;;-0.30;99.90;;;;;;4958905;28;37261;-76
2023/12/01 05:08:10;;;;;;;54.30;22.13;;;-0.40;99.90;;;;;;4971005;28;40257;-77
2023/12/01 05:10:38;;;;;;;59.63;23.63;;;-0.30;99.90;;;;;;4942963;28;37464;-75
2023/12/01 05:13:05;;;;;;;64.93;25.57;;;-0.20;99.90;;;;;;4968725;28;39925;-76
2023/12/01 05:15:34;;;;;;;71.67;26.33;;;-0.20;99.90;;;;;;4964136;28;37395;-75
2023/12/01 05:18:05;;;;;;;63.97;25.77;;;-0.20;99.90;;;;;;4945716;28;38527;-77
2023/12/01 05:20:32;;;;;;;61.07;26.00;;;-0.10;99.90;;;;;;4949079;28;48334;-76
2023/12/01 05:23:08;;;;;;;76.83;28.23;;;-0.20;99.90;;;;;;4956162;28;37137;-76
2023/12/01 05:25:34;;;;;;;65.67;26.07;;;-0.10;99.90;;;;;;4957852;28;47651;-76
2023/12/01 05:28:07;;;;;;;63.83;27.70;;;-0.10;99.90;;;;;;4957085;28;37722;-75
2023/12/01 05:30:36;;;;;;;58.83;25.27;;;-0.10;99.90;;;;;;4964069;28;49138;-75
2023/12/01 05:33:06;;;;;;;63.63;25.83;;;-0.20;99.90;;;;;;4962293;28;38185;-76
2023/12/01 05:35:37;;;;;;;55.20;23.80;;;-0.10;99.90;;;;;;4972119;28;37187;-75
2023/12/01 05:38:07;;;;;;;57.30;23.80;;;-0.20;99.90;;;;;;4953108;28;36677;-75
2023/12/01 05:40:36;;;;;;;53.07;24.03;;;-0.20;99.90;;;;;;4965581;28;38287;-74
2023/12/01 05:43:04;;;;;;;57.03;22.73;;;-0.20;99.90;;;;;;4965195;28;39013;-75
2023/12/01 05:45:36;;;;;;;52.10;22.87;;;-0.10;99.90;;;;;;4949397;28;37580;-76
2023/12/01 05:48:11;;;;;;;51.58;22.85;;;-0.10;99.90;;;;;;4960668;28;38666;-77
2023/12/01 05:50:41;;;;;;;58.40;24.17;;;-0.10;99.90;;;;;;4944858;28;37575;-76
2023/12/01 05:53:08;;;;;;;55.80;23.67;;;0.00;99.90;;;;;;4944444;28;38254;-77
2023/12/01 05:55:38;;;;;;;60.70;24.73;;;0.00;99.90;;;;;;4954140;28;36367;-77
2023/12/01 05:58:10;;;;;;;59.53;23.40;;;0.10;99.90;;;;;;4971842;28;38740;-75
2023/12/01 06:00:36;;;;;;;57.55;22.92;;;0.10;99.90;;;;;;4963613;28;38699;-76
2023/12/01 06:03:07;;;;;;;73.10;26.90;;;0.10;99.90;;;;;;4958491;28;37809;-75
2023/12/01 06:05:35;;;;;;;57.13;23.83;;;0.10;99.90;;;;;;4968381;28;37504;-76
2023/12/01 06:08:02;;;;;;;61.43;24.87;;;0.10;99.90;;;;;;4959397;28;39019;-77
2023/12/01 06:10:32;;;;;;;57.80;24.20;;;0.20;99.90;;;;;;4944019;28;47251;-77
2023/12/01 06:12:58;;;;;;;64.73;28.00;;;0.20;99.90;;;;;;4957852;28;38637;-75
2023/12/01 06:15:29;;;;;;;59.30;25.20;;;0.20;99.90;;;;;;4945547;28;37189;-75
2023/12/01 06:18:00;;;;;;;67.83;25.33;;;0.30;99.90;;;;;;4950884;28;39256;-80
2023/12/01 06:20:27;;;;;;;58.30;25.23;;;0.30;99.90;;;;;;4948757;28;37408;-78
2023/12/01 06:22:56;;;;;;;58.43;26.30;;;0.30;99.90;;;;;;4948879;28;38344;-76
2023/12/01 06:25:29;;;;;;;68.13;26.63;;;0.40;99.90;;;;;;4942441;28;37859;-76
2023/12/01 06:28:01;;;;;;;70.03;27.27;;;0.40;99.90;;;;;;4944801;28;37902;-77
2023/12/01 06:30:32;;;;;;;61.17;26.25;;;0.40;99.90;;;;;;4943310;28;48792;-76
2023/12/01 06:33:00;;;;;;;61.08;26.42;;;0.50;99.90;;;;;;4945959;28;37793;-77
2023/12/01 06:35:27;;;;;;;66.57;26.60;;;0.50;99.90;;;;;;4954587;28;37939;-77
2023/12/01 06:37:53;;;;;;;63.13;26.10;;;0.50;99.90;;;;;;4965107;28;38795;-77
2023/12/01 06:40:20;;;;;;;60.20;25.47;;;0.50;99.90;;;;;;4965251;28;38827;-76
2023/12/01 06:42:52;;;;;;;67.37;27.10;;;0.50;99.90;;;;;;4942231;28;38816;-76
2023/12/01 06:45:19;;;;;;;67.05;25.90;;;0.60;99.90;;;;;;4939615;28;36680;-76
2023/12/01 06:47:49;;;;;;;71.67;26.60;;;0.60;99.90;;;;;;4941717;28;36473;-76
2023/12/01 06:50:18;;;;;;;58.53;24.83;;;0.60;99.90;;;;;;4955368;28;38114;-76
2023/12/01 06:52:49;;;;;;;69.53;26.83;;;0.70;99.90;;;;;;4962007;28;38374;-77
2023/12/01 06:55:16;;;;;;;68.40;26.77;;;0.70;99.90;;;;;;4964391;28;38032;-76
2023/12/01 06:57:45;;;;;;;71.20;27.97;;;0.70;99.90;;;;;;4949487;28;38652;-77
2023/12/01 07:03:04;;;;;;;60.27;26.30;;;0.70;99.90;;;;;;4962524;28;47633;-77
2023/12/01 07:05:33;;;;;;;70.60;28.00;;;0.70;99.90;;;;;;4936212;28;47207;-77
2023/12/01 07:08:03;;;;;;;73.03;28.43;;;0.70;99.90;;;;;;4966895;28;39337;-77
2023/12/01 07:10:33;;;;;;;63.90;27.10;;;0.70;99.90;;;;;;4957909;28;47749;-78
2023/12/01 07:12:59;;;;;;;67.73;29.10;;;0.80;99.90;;;;;;4955280;28;38877;-76
2023/12/01 07:15:26;;;;;;;69.50;28.47;;;0.80;99.90;;;;;;4950502;28;37076;-76
2023/12/01 07:17:56;;;;;;;70.90;27.53;;;0.80;99.90;;;;;;4967078;28;39986;-77
2023/12/01 07:20:24;;;;;;;74.87;29.27;;;0.80;99.90;;;;;;4952625;28;38844;-77
2023/12/01 07:22:53;;;;;;;71.20;28.63;;;0.80;99.90;;;;;;4961247;28;36926;-76
2023/12/01 07:25:23;;;;;;;68.87;28.53;;;0.80;99.90;;;;;;4944242;28;37272;-75
2023/12/01 07:28:01;;;;;;;70.07;28.50;;;0.80;99.90;;;;;;4945148;28;40997;-76
2023/12/01 07:30:27;;;;;;;68.33;27.50;;;0.80;99.90;;;;;;4971496;28;48644;-76
2023/12/01 07:32:54;;;;;;;74.57;27.40;;;0.90;99.90;;;;;;4958265;28;38041;-76
2023/12/01 07:35:21;;;;;;;79.40;28.60;;;0.90;99.90;;;;;;4964709;28;38094;-75
2023/12/01 07:37:48;;;;;;;71.50;27.67;;;1.00;99.90;;;;;;4942490;28;38070;-76
2023/12/01 07:40:19;;;;;;;72.50;29.13;;;0.90;99.90;;;;;;4949893;28;38581;-76
2023/12/01 07:42:46;;;;;;;67.10;28.03;;;0.90;99.90;;;;;;4950196;28;37060;-77
2023/12/01 07:45:17;;;;;;;73.70;29.00;;;0.90;99.90;;;;;;4942535;28;36945;-76
2023/12/01 07:47:50;;;;;;;65.70;27.63;;;1.00;99.90;;;;;;4930907;28;38424;-78
2023/12/01 07:50:17;;;;;;;74.80;29.67;;;1.00;99.90;;;;;;4956050;28;39448;-78
2023/12/01 07:52:44;;;;;;;73.33;29.20;;;1.00;99.90;;;;;;4951991;28;37267;-77
2023/12/01 07:55:10;;;;;;;75.67;27.77;;;1.00;99.90;;;;;;4943273;28;37700;-77
2023/12/01 07:57:37;;;;;;;74.13;28.90;;;1.00;99.90;;;;;;4984717;28;38763;-77
2023/12/01 08:00:14;;;;;;;66.73;28.23;;;1.10;99.90;;;;;;4982313;28;38139;-77
2023/12/01 08:02:54;;;;;;;72.30;29.00;;;1.10;99.90;;;;;;4957481;28;39227;-76
2023/12/01 08:05:20;;;;;;;70.27;28.83;;;1.10;99.90;;;;;;4949976;28;37672;-77
2023/12/01 08:07:51;;;;;;;77.80;29.90;;;1.10;99.90;;;;;;4944518;28;39136;-77
2023/12/01 08:10:21;;;;;;;70.00;28.50;;;1.10;99.90;;;;;;4957405;28;37574;-77
2023/12/01 08:12:50;;;;;;;73.47;29.33;;;1.20;99.90;;;;;;4952609;28;37117;-77
2023/12/01 08:15:19;;;;;;;76.13;29.73;;;1.20;99.90;;;;;;4959490;28;36666;-77
2023/12/01 08:17:46;;;;;;;72.53;27.93;;;1.20;99.90;;;;;;4940787;28;39036;-76
2023/12/01 08:20:12;;;;;;;70.77;29.10;;;1.20;99.90;;;;;;4941238;28;38000;-75
2023/12/01 08:22:39;;;;;;;71.67;28.77;;;1.10;99.90;;;;;;4953111;28;37772;-76
2023/12/01 08:25:07;;;;;;;70.33;30.13;;;1.20;99.90;;;;;;4955672;28;36506;-76
2023/12/01 08:27:33;;;;;;;73.63;28.73;;;1.20;99.90;;;;;;4951453;28;39814;-76
2023/12/01 08:29:59;;;;;;;71.70;29.07;;;1.30;99.90;;;;;;4964585;28;39141;-77
2023/12/01 08:32:26;;;;;;;79.57;31.50;;;1.20;99.90;;;;;;4964732;28;37989;-76
2023/12/01 08:34:54;;;;;;;72.27;29.47;;;1.20;99.90;;;;;;4950644;28;36791;-76
2023/12/01 08:37:21;;;;;;;78.73;30.03;;;1.20;99.90;;;;;;4960572;28;38545;-77
2023/12/01 08:39:47;;;;;;;80.33;29.80;;;1.20;99.90;;;;;;4965471;28;38401;-76
2023/12/01 08:42:13;;;;;;;67.93;28.03;;;1.20;99.90;;;;;;4951463;28;37257;-77
2023/12/01 08:44:39;;;;;;;70.67;29.40;;;1.30;99.90;;;;;;4965047;28;38764;-76
2023/12/01 08:47:06;;;;;;;81.23;31.20;;;1.30;99.90;;;;;;4958948;28;38654;-77
2023/12/01 08:49:32;;;;;;;71.27;30.03;;;1.40;99.90;;;;;;4967165;28;38601;-76
2023/12/01 08:51:58;;;;;;;80.47;36.33;;;1.40;99.90;;;;;;4970188;28;38724;-76
2023/12/01 08:54:25;;;;;;;98.47;51.73;;;1.50;99.90;;;;;;4954703;28;36905;-76
2023/12/01 08:56:51;;;;;;;79.67;35.03;;;1.50;99.90;;;;;;4971372;28;39599;-76
2023/12/01 08:59:18;;;;;;;70.83;28.87;;;1.60;99.90;;;;;;4949182;28;37364;-78
2023/12/01 09:01:44;;;;;;;63.40;27.10;;;1.60;99.90;;;;;;4976451;28;38566;-77
2023/12/01 09:04:10;;;;;;;64.17;27.40;;;1.60;99.90;;;;;;4970358;28;37322;-77
2023/12/01 09:06:38;;;;;;;68.50;29.33;;;1.60;99.90;;;;;;4965524;28;38596;-77
2023/12/01 09:09:05;;;;;;;66.10;28.80;;;1.70;99.90;;;;;;4975095;28;39259;-77
2023/12/01 09:11:31;;;;;;;67.70;27.57;;;1.70;99.90;;;;;;4952711;28;37120;-76
2023/12/01 09:13:58;;;;;;;65.80;27.13;;;1.70;99.90;;;;;;4947942;28;37919;-77
2023/12/01 09:16:24;;;;;;;66.37;29.77;;;1.70;99.90;;;;;;4943357;28;38166;-77
2023/12/01 09:18:51;;;;;;;65.03;29.17;;;1.80;99.90;;;;;;4974364;28;38971;-77
2023/12/01 09:21:17;;;;;;;68.10;26.93;;;1.80;99.90;;;;;;4955238;28;37756;-77
2023/12/01 09:23:44;;;;;;;70.10;29.23;;;1.80;99.90;;;;;;4946700;28;36223;-77
2023/12/01 09:26:17;;;;;;;64.47;27.67;;;1.80;99.90;;;;;;4941554;28;39538;-76
2023/12/01 09:28:44;;;;;;;58.30;27.83;;;1.80;99.90;;;;;;4965543;28;38275;-77
2023/12/01 09:31:11;;;;;;;62.87;26.53;;;1.90;99.90;;;;;;4954918;28;38010;-76
2023/12/01 09:33:39;;;;;;;60.10;27.43;;;2.00;99.90;;;;;;4960731;28;36688;-76
2023/12/01 09:36:05;;;;;;;58.70;27.03;;;2.00;99.90;;;;;;4973956;28;39632;-76
2023/12/01 09:38:31;;;;;;;64.33;27.37;;;2.10;99.90;;;;;;4963685;28;37993;-77
2023/12/01 09:40:58;;;;;;;60.60;28.07;;;2.10;99.90;;;;;;4963377;28;37301;-75
2023/12/01 09:43:24;;;;;;;63.03;26.73;;;2.00;99.90;;;;;;4974286;28;37283;-76
2023/12/01 09:45:52;;;;;;;60.57;25.93;;;2.00;99.90;;;;;;4969708;28;39863;-76
2023/12/01 09:48:21;;;;;;;63.43;25.97;;;2.00;99.90;;;;;;4980341;28;39200;-75
2023/12/01 09:50:50;;;;;;;57.73;25.90;;;2.00;99.90;;;;;;4951246;28;36968;-76
2023/12/01 09:53:16;;;;;;;62.10;26.03;;;2.00;99.90;;;;;;4938422;28;35548;-76
2023/12/01 09:55:43;;;;;;;55.57;24.17;;;2.10;99.90;;;;;;4962065;28;37594;-76
2023/12/01 09:58:10;;;;;;;58.20;24.10;;;2.00;99.90;;;;;;4948559;28;39226;-76
2023/12/01 10:00:37;;;;;;;54.40;22.43;;;2.00;99.90;;;;;;4952994;28;38377;-76
2023/12/01 10:03:03;;;;;;;53.70;22.57;;;2.00;99.90;;;;;;4963029;28;37807;-76
2023/12/01 10:05:34;;;;;;;48.37;21.77;;;2.00;99.90;;;;;;4969081;28;38767;-76
2023/12/01 10:08:01;;;;;;;50.57;22.00;;;2.00;99.90;;;;;;4957157;28;37775;-76
2023/12/01 10:10:28;;;;;;;46.10;21.83;;;1.90;99.90;;;;;;4962595;28;48313;-76
2023/12/01 10:13:07;;;;;;;48.77;23.00;;;1.90;99.90;;;;;;4941521;28;36821;-75
2023/12/01 10:15:40;;;;;;;50.83;22.00;;;2.00;99.90;;;;;;4949172;28;48627;-76
2023/12/01 10:18:16;;;;;;;50.00;20.40;;;2.10;99.90;;;;;;4959854;28;38877;-76
2023/12/01 10:21:07;;;;;;;49.20;22.13;;;2.00;99.90;;;;;;4960447;28;40031;-76
2023/12/01 10:23:33;;;;;;;46.63;20.93;;;2.00;99.90;;;;;;4942132;28;50154;-76
2023/12/01 10:26:03;;;;;;;53.23;22.33;;;2.10;99.90;;;;;;4933051;28;39425;-76
2023/12/01 10:28:40;;;;;;;52.43;22.97;;;2.10;99.90;;;;;;4959650;28;48451;-77
2023/12/01 10:31:07;;;;;;;45.97;19.83;;;2.10;99.90;;;;;;4944688;28;37332;-76
2023/12/01 10:33:35;;;;;;;46.47;18.77;;;2.10;99.90;;;;;;4941261;28;36502;-77
2023/12/01 10:36:09;;;;;;;42.50;19.63;;;2.00;99.90;;;;;;4968462;28;39872;-77
2023/12/01 10:38:36;;;;;;;45.97;21.33;;;2.00;99.90;;;;;;4980354;28;48757;-76
2023/12/01 10:41:04;;;;;;;40.83;18.47;;;2.00;99.90;;;;;;4970112;28;39013;-76
2023/12/01 10:43:34;;;;;;;43.47;19.50;;;2.00;99.90;;;;;;4971396;28;38042;-76
2023/12/01 10:46:03;;;;;;;47.20;20.77;;;2.00;99.90;;;;;;4980455;28;39987;-77
2023/12/01 10:48:31;;;;;;;46.67;19.57;;;2.00;99.90;;;;;;4952843;28;46877;-76
2023/12/01 10:50:57;;;;;;;38.23;18.07;;;2.10;99.90;;;;;;4963724;28;38941;-77
2023/12/01 10:53:26;;;;;;;44.00;19.13;;;2.20;99.90;;;;;;4966342;28;37219;-77
2023/12/01 10:55:55;;;;;;;47.67;20.47;;;2.30;99.90;;;;;;4950010;28;37925;-77
2023/12/01 10:58:22;;;;;;;47.90;19.43;;;2.40;99.90;;;;;;4937918;28;37154;-78
2023/12/01 11:00:53;;;;;;;43.03;18.30;;;2.40;99.90;;;;;;4955910;28;38301;-76
2023/12/01 11:03:22;;;;;;;37.63;17.97;;;2.40;99.90;;;;;;4969516;28;38420;-76
2023/12/01 11:05:56;;;;;;;42.73;18.40;;;2.40;99.90;;;;;;4966813;28;38876;-77
2023/12/01 11:08:53;;;;;;;37.97;17.10;;;2.50;99.90;;;;;;4942973;28;37907;-76
2023/12/01 11:11:46;;;;;;;39.03;17.43;;;2.50;99.90;;;;;;4960739;28;37768;-76
2023/12/01 11:14:20;;;;;;;39.65;17.83;;;2.60;99.90;;;;;;4971667;28;38015;-76
2023/12/01 11:16:47;;;;;;;42.67;18.00;;;2.60;99.90;;;;;;4961789;28;39151;-76
2023/12/01 11:19:15;;;;;;;40.73;17.70;;;2.60;99.90;;;;;;4968781;28;39247;-76
2023/12/01 11:21:49;;;;;;;38.77;17.90;;;2.60;99.90;;;;;;4950400;28;36959;-77
2023/12/01 11:24:32;;;;;;;43.73;19.47;;;2.50;99.90;;;;;;4973292;28;37839;-76
2023/12/01 11:27:06;;;;;;;42.67;19.87;;;2.30;99.90;;;;;;4946818;28;39280;-76
2023/12/01 11:29:35;;;;;;;38.70;18.10;;;2.40;99.90;;;;;;4956340;28;47797;-77
2023/12/01 11:32:03;;;;;;;43.03;19.53;;;2.40;99.90;;;;;;4948507;28;39021;-77
2023/12/01 11:34:30;;;;;;;43.23;18.27;;;2.50;99.90;;;;;;4973205;28;48914;-77
2023/12/01 11:37:02;;;;;;;38.90;18.13;;;2.40;99.90;;;;;;4958004;28;39904;-77
2023/12/01 11:39:29;;;;;;;42.38;17.27;;;2.40;99.90;;;;;;4945757;28;47341;-77
2023/12/01 11:41:58;;;;;;;38.40;17.73;;;2.50;99.90;;;;;;4947757;28;38099;-77
2023/12/01 11:44:34;;;;;;;41.53;17.90;;;2.60;99.90;;;;;;4963234;28;37654;-77
2023/12/01 11:47:04;;;;;;;38.27;17.90;;;2.70;99.00;;;;;;4962478;28;38331;-77
2023/12/01 11:49:33;;;;;;;36.67;17.20;;;2.80;99.90;;;;;;4960293;28;48480;-77
2023/12/01 11:52:12;;;;;;;37.57;16.70;;;2.90;99.90;;;;;;4931659;28;37452;-77
2023/12/01 11:54:38;;;;;;;32.93;15.50;;;2.90;95.10;;;;;;4946055;28;48011;-77
2023/12/01 11:57:07;;;;;;;37.37;17.53;;;2.90;92.80;;;;;;4948885;28;37935;-77
2023/12/01 11:59:33;;;;;;;33.80;15.97;;;2.90;96.60;;;;;;4940832;28;38860;-77
2023/12/01 12:02:00;;;;;;;34.10;15.97;;;3.00;96.20;;;;;;4942304;28;38170;-78
2023/12/01 12:04:26;;;;;;;32.50;15.13;;;3.00;95.90;;;;;;4968846;28;37437;-77
2023/12/01 12:06:52;;;;;;;36.03;15.77;;;3.00;92.90;;;;;;4944408;28;37706;-77
2023/12/01 12:09:19;;;;;;;31.33;15.20;;;3.10;88.70;;;;;;4948503;28;39139;-77
2023/12/01 12:11:50;;;;;;;29.47;15.13;;;3.10;90.10;;;;;;4940079;28;37227;-78
2023/12/01 12:14:30;;;;;;;29.33;14.80;;;3.10;79.90;;;;;;4946462;28;36233;-78
2023/12/01 12:16:57;;;;;;;29.63;14.63;;;3.00;80.30;;;;;;4958936;28;37794;-77
2023/12/01 12:19:23;;;;;;;30.33;13.67;;;3.00;80.40;;;;;;4947972;28;37324;-77
2023/12/01 12:21:50;;;;;;;28.53;13.27;;;2.90;72.10;;;;;;4947739;28;36864;-78
2023/12/01 12:24:16;;;;;;;33.67;15.60;;;2.80;69.60;;;;;;4953237;28;37621;-78
2023/12/01 12:26:43;;;;;;;31.93;15.23;;;2.70;78.50;;;;;;4956080;28;38910;-77
2023/12/01 12:29:11;;;;;;;32.90;15.60;;;2.70;84.50;;;;;;4947401;28;37277;-78
2023/12/01 12:31:40;;;;;;;29.43;13.87;;;2.70;83.50;;;;;;4950506;28;39379;-77
2023/12/01 12:34:08;;;;;;;35.20;15.30;;;2.70;82.90;;;;;;4953517;28;37166;-78
2023/12/01 12:36:37;;;;;;;31.07;15.70;;;2.70;82.20;;;;;;4948225;28;39200;-77
2023/12/01 12:39:13;;;;;;;31.37;15.60;;;2.70;82.70;;;;;;4946562;28;37156;-78
2023/12/01 12:41:40;;;;;;;32.83;14.87;;;2.70;88.10;;;;;;4953100;28;36939;-78
2023/12/01 12:44:09;;;;;;;30.80;13.67;;;2.70;85.70;;;;;;4960031;28;38459;-78
2023/12/01 12:46:35;;;;;;;30.23;14.57;;;2.80;81.20;;;;;;4967002;28;40251;-77
2023/12/01 12:49:11;;;;;;;33.40;15.00;;;2.90;82.50;;;;;;4963126;28;38767;-77
2023/12/01 12:51:38;;;;;;;32.97;14.20;;;3.00;84.60;;;;;;4948051;28;37281;-78
2023/12/01 12:54:06;;;;;;;28.73;13.97;;;3.20;92.30;;;;;;4965565;28;37495;-78
2023/12/01 12:56:33;;;;;;;29.80;14.33;;;3.30;91.00;;;;;;4946478;28;37561;-77